Abernathy, Texas
Current Conditions -  °F | °C
As of 1:53 AM on Friday 24 Oct 2014 (Local Time) from KLBB Reporting Station
Clear Clear  
Wind Chill: 59°   Ceiling: Unl
Heat Index: 59°   Visibility: 7mi
Dew Point: 56°   Wind: 6mph
Humidity: 90%   Direction: 250°WSW
Pressure: 30.14"   Gusts: NA
Location:  33.83°N, 101.84°W
Report Text: KLBB 240653Z 25005KT 7SM CLR 15/13 A3014 RMK AO2 SLP172 BR ALQDS T01500133
Loading
Personal Weather Stations






























Interactive Weather Map
Tropical Storm Tracking
New forecast layout! Learn more

10-Day Weather Forecast

Advertisements
Track Severe Weather on mobile